Time;durP1;ratioP1;P1;durP2;ratioP2;P2;SDS_P1;SDS_P2;PMS_P1;PMS_P2;Temp;Humidity;BMP_temperature;BMP_pressure;BME280_temperature;BME280_humidity;BME280_pressure;Samples;Min_cycle;Max_cycle;Signal;HPM_P1;HPM_P2
2023/10/09 00:01:46;;;;;;;9.13;3.65;;;13.80;99.90;;;;;;5131647;27;20055;-76
2023/10/09 00:04:15;;;;;;;6.95;3.85;;;13.80;99.90;;;;;;5109772;28;20039;-76
2023/10/09 00:06:42;;;;;;;10.53;4.00;;;13.80;99.90;;;;;;5111625;28;20108;-76
2023/10/09 00:09:30;;;;;;;7.43;3.42;;;13.80;99.90;;;;;;5111863;28;20395;-75
2023/10/09 00:11:58;;;;;;;11.30;4.53;;;13.80;99.90;;;;;;5131139;27;20499;-75
2023/10/09 00:14:30;;;;;;;10.32;4.25;;;13.80;99.90;;;;;;5130862;28;20051;-76
2023/10/09 00:17:05;;;;;;;9.80;4.00;;;13.80;99.90;;;;;;5110653;28;20499;-75
2023/10/09 00:19:33;;;;;;;10.48;5.28;;;13.90;99.90;;;;;;5111724;28;20047;-75
2023/10/09 00:22:04;;;;;;;11.27;5.30;;;13.80;99.90;;;;;;5114831;28;20078;-76
2023/10/09 00:24:33;;;;;;;12.02;4.53;;;13.80;99.90;;;;;;5131255;28;20047;-76
2023/10/09 00:27:11;;;;;;;12.00;4.10;;;13.80;99.90;;;;;;5130825;28;20043;-75
2023/10/09 00:29:44;;;;;;;10.30;4.85;;;13.80;99.90;;;;;;5131257;28;20035;-75
2023/10/09 00:32:22;;;;;;;15.20;5.28;;;13.80;99.90;;;;;;5131290;28;20039;-75
2023/10/09 00:34:50;;;;;;;10.30;4.97;;;13.80;99.90;;;;;;5131878;28;20134;-76
2023/10/09 00:37:22;;;;;;;10.82;4.68;;;13.80;99.90;;;;;;5131015;28;20406;-76
2023/10/09 00:39:55;;;;;;;16.33;5.88;;;13.80;99.90;;;;;;5131793;27;20058;-75
2023/10/09 00:42:27;;;;;;;13.70;5.70;;;13.80;99.90;;;;;;5134679;27;20051;-76
2023/10/09 00:44:56;;;;;;;8.75;4.93;;;13.90;99.90;;;;;;5135426;27;20054;-75
2023/10/09 00:47:26;;;;;;;14.00;6.30;;;13.90;99.90;;;;;;5123938;27;20046;-75
2023/10/09 00:49:59;;;;;;;8.65;5.22;;;13.90;99.90;;;;;;5134437;27;20051;-76
2023/10/09 00:52:34;;;;;;;10.07;5.28;;;13.90;99.90;;;;;;5120712;27;20054;-76
2023/10/09 00:55:13;;;;;;;14.00;5.63;;;13.90;99.90;;;;;;5115256;27;20054;-76
2023/10/09 00:57:41;;;;;;;11.23;5.22;;;13.90;99.90;;;;;;5115636;27;20056;-75
2023/10/09 01:00:32;;;;;;;13.93;5.40;;;13.90;99.90;;;;;;5115707;27;20100;-74
2023/10/09 01:03:18;;;;;;;14.52;6.47;;;14.00;99.90;;;;;;5132660;27;20050;-75
2023/10/09 01:05:51;;;;;;;11.82;5.85;;;14.00;99.90;;;;;;5134901;27;20079;-75
2023/10/09 01:08:25;;;;;;;12.02;5.93;;;14.00;99.90;;;;;;5134666;27;20063;-75
2023/10/09 01:10:56;;;;;;;11.68;5.57;;;14.00;99.90;;;;;;5134054;27;20518;-74
2023/10/09 01:13:27;;;;;;;15.20;6.00;;;14.00;99.90;;;;;;5134772;27;20043;-74
2023/10/09 01:15:58;;;;;;;12.93;7.13;;;14.00;99.90;;;;;;5134335;27;20096;-74
2023/10/09 01:18:35;;;;;;;15.07;6.32;;;14.00;99.90;;;;;;5134439;27;20047;-74
2023/10/09 01:21:03;;;;;;;12.65;6.15;;;14.10;99.90;;;;;;5134750;27;20550;-74
2023/10/09 01:23:31;;;;;;;18.88;8.18;;;14.00;99.90;;;;;;5133670;27;20516;-75
2023/10/09 01:25:58;;;;;;;20.25;7.82;;;14.00;99.90;;;;;;5134807;27;20054;-74
2023/10/09 01:28:26;;;;;;;13.18;7.35;;;14.10;99.90;;;;;;5134367;27;20451;-75
2023/10/09 01:30:55;;;;;;;15.90;7.50;;;14.10;99.90;;;;;;5134060;27;20452;-75
2023/10/09 01:33:23;;;;;;;15.98;7.72;;;14.00;99.90;;;;;;5134245;27;20055;-75
2023/10/09 01:35:56;;;;;;;20.50;7.78;;;14.00;99.90;;;;;;5134318;27;20596;-75
2023/10/09 01:38:40;;;;;;;18.15;8.32;;;14.10;99.90;;;;;;5133552;27;20043;-74
2023/10/09 01:41:15;;;;;;;19.80;8.70;;;14.00;99.90;;;;;;5134330;27;20403;-76
2023/10/09 01:43:44;;;;;;;22.27;9.52;;;14.00;99.90;;;;;;5133912;27;20066;-75
2023/10/09 01:46:12;;;;;;;20.77;9.38;;;14.10;99.90;;;;;;5133652;27;20049;-74
2023/10/09 01:48:41;;;;;;;17.70;8.73;;;14.10;99.90;;;;;;5115758;27;20051;-75
2023/10/09 01:51:17;;;;;;;20.95;9.32;;;14.00;99.90;;;;;;5112831;27;20824;-75
2023/10/09 01:53:44;;;;;;;23.38;9.98;;;14.10;99.90;;;;;;5113445;28;20409;-74
2023/10/09 01:56:14;;;;;;;21.77;9.57;;;14.10;99.90;;;;;;5113993;28;20055;-74
2023/10/09 01:58:46;;;;;;;20.75;10.55;;;14.00;99.90;;;;;;5111657;28;20559;-75
2023/10/09 02:01:14;;;;;;;17.88;10.00;;;14.00;99.90;;;;;;5113886;28;20564;-75
2023/10/09 02:03:43;;;;;;;19.85;9.63;;;14.00;99.90;;;;;;5113603;28;20043;-74
2023/10/09 02:06:26;;;;;;;21.00;10.45;;;14.00;99.90;;;;;;5113478;28;20503;-75
2023/10/09 02:08:54;;;;;;;21.08;10.20;;;14.00;99.90;;;;;;5112812;28;20052;-75
2023/10/09 02:11:36;;;;;;;27.25;12.02;;;14.00;99.90;;;;;;5113877;28;20051;-76
2023/10/09 02:14:15;;;;;;;17.70;10.40;;;14.00;99.90;;;;;;5112700;28;20419;-75
2023/10/09 02:16:43;;;;;;;24.48;10.93;;;13.90;99.90;;;;;;5113590;28;20056;-75
2023/10/09 02:19:30;;;;;;;19.67;10.43;;;14.00;99.90;;;;;;5112830;28;20047;-74
2023/10/09 02:21:57;;;;;;;21.33;10.77;;;14.00;99.90;;;;;;5113643;28;20055;-76
2023/10/09 02:24:41;;;;;;;23.50;11.48;;;14.00;99.90;;;;;;5113389;28;20062;-76
2023/10/09 02:27:12;;;;;;;24.40;11.95;;;14.00;99.90;;;;;;5112866;28;20047;-75
2023/10/09 02:29:41;;;;;;;23.38;12.77;;;13.90;99.90;;;;;;5113248;28;20054;-75
2023/10/09 02:32:16;;;;;;;28.20;11.95;;;13.90;99.90;;;;;;5113235;28;20062;-75
2023/10/09 02:34:46;;;;;;;23.48;12.02;;;13.90;99.90;;;;;;5112426;28;20047;-76
2023/10/09 02:37:13;;;;;;;27.70;12.43;;;13.90;99.90;;;;;;5114209;28;20093;-76
2023/10/09 02:39:48;;;;;;;27.55;11.82;;;13.80;99.90;;;;;;5111040;28;20599;-76
2023/10/09 02:42:25;;;;;;;24.45;12.73;;;13.80;99.90;;;;;;5112536;28;20100;-74
2023/10/09 02:44:52;;;;;;;26.88;12.77;;;13.80;99.90;;;;;;5110902;28;20047;-74
2023/10/09 02:47:24;;;;;;;30.40;12.75;;;13.70;99.90;;;;;;5112275;28;20566;-75
2023/10/09 02:49:51;;;;;;;29.60;12.88;;;13.70;99.90;;;;;;5112497;28;20450;-74
2023/10/09 02:52:24;;;;;;;29.10;13.27;;;13.70;99.90;;;;;;5112379;28;20048;-75
2023/10/09 02:54:59;;;;;;;25.42;13.48;;;13.70;99.90;;;;;;5113232;28;20138;-74
2023/10/09 02:57:36;;;;;;;26.70;13.35;;;13.70;99.90;;;;;;5112723;28;20048;-75
2023/10/09 03:00:08;;;;;;;30.33;15.30;;;13.70;99.90;;;;;;5112658;28;20441;-76
2023/10/09 03:02:39;;;;;;;29.00;15.00;;;13.70;99.90;;;;;;5111877;28;20059;-75
2023/10/09 03:05:11;;;;;;;33.83;16.85;;;13.70;99.90;;;;;;5112518;28;20048;-75
2023/10/09 03:07:39;;;;;;;32.25;16.45;;;13.70;99.90;;;;;;5110874;28;20044;-75
2023/10/09 03:10:09;;;;;;;30.38;17.20;;;13.70;99.90;;;;;;5111734;28;20140;-75
2023/10/09 03:12:39;;;;;;;33.05;19.67;;;13.70;99.90;;;;;;5112322;28;20164;-75
2023/10/09 03:15:08;;;;;;;30.60;16.90;;;13.80;99.90;;;;;;5112839;28;20139;-75
2023/10/09 03:17:35;;;;;;;38.90;18.90;;;13.80;99.90;;;;;;5111889;28;20323;-75
2023/10/09 03:20:11;;;;;;;35.58;20.00;;;13.90;99.90;;;;;;5112703;28;20100;-75
2023/10/09 03:22:39;;;;;;;33.38;19.70;;;13.90;99.90;;;;;;5110693;28;20471;-74
2023/10/09 03:25:11;;;;;;;38.58;20.45;;;13.90;99.90;;;;;;5112162;28;20051;-75
2023/10/09 03:27:41;;;;;;;36.03;20.40;;;14.00;99.90;;;;;;5111999;28;20073;-74
2023/10/09 03:30:16;;;;;;;43.20;20.98;;;14.10;99.90;;;;;;5111537;28;20045;-75
2023/10/09 03:32:43;;;;;;;36.67;20.38;;;14.10;99.90;;;;;;5110674;28;20051;-75
2023/10/09 03:35:14;;;;;;;41.97;21.08;;;14.10;99.90;;;;;;5111646;28;20043;-74
2023/10/09 03:37:41;;;;;;;39.97;22.52;;;14.20;99.90;;;;;;5111663;28;20051;-75
2023/10/09 03:40:15;;;;;;;44.15;22.17;;;14.20;99.90;;;;;;5111574;28;20407;-75
2023/10/09 03:42:43;;;;;;;38.33;21.58;;;14.30;99.90;;;;;;5112138;28;20495;-75
2023/10/09 03:45:18;;;;;;;47.35;23.65;;;14.30;99.90;;;;;;5111146;28;20389;-75
2023/10/09 03:47:48;;;;;;;51.20;23.58;;;14.40;99.90;;;;;;5111947;28;20070;-74
2023/10/09 03:50:26;;;;;;;43.00;21.80;;;14.40;99.90;;;;;;5120883;27;20058;-74
2023/10/09 03:52:54;;;;;;;39.97;22.30;;;14.50;99.90;;;;;;5131333;27;20104;-74
2023/10/09 03:55:27;;;;;;;40.70;21.98;;;14.50;99.90;;;;;;5131345;27;20100;-74
2023/10/09 03:57:58;;;;;;;45.00;21.40;;;14.70;99.90;;;;;;5131137;27;20138;-74
2023/10/09 04:00:28;;;;;;;35.35;20.50;;;14.70;99.90;;;;;;5131666;27;20065;-75
2023/10/09 04:02:56;;;;;;;37.83;20.73;;;14.80;99.90;;;;;;5131721;27;20137;-75
2023/10/09 04:05:24;;;;;;;41.58;19.85;;;14.90;99.90;;;;;;5111703;27;20139;-76
2023/10/09 04:07:53;;;;;;;32.53;18.80;;;14.90;99.90;;;;;;5130817;27;20158;-76
2023/10/09 04:10:50;;;;;;;34.17;19.00;;;15.00;99.90;;;;;;5131365;27;20043;-75
2023/10/09 04:13:22;;;;;;;29.92;16.88;;;15.10;99.90;;;;;;5111404;28;20514;-75
2023/10/09 04:15:53;;;;;;;33.97;18.40;;;15.20;99.90;;;;;;5111635;28;20253;-76
2023/10/09 04:18:27;;;;;;;30.20;17.25;;;15.30;99.90;;;;;;5129669;28;20559;-75
2023/10/09 04:26:20;;;;;;;35.47;17.23;;;15.40;99.90;;;;;;5121397;27;20184;-75
2023/10/09 04:28:51;;;;;;;28.55;17.13;;;15.40;99.90;;;;;;5118262;28;20052;-74
2023/10/09 04:31:19;;;;;;;28.63;16.05;;;15.50;99.90;;;;;;5131164;28;20049;-74
2023/10/09 04:33:54;;;;;;;40.65;18.25;;;15.50;99.90;;;;;;5127314;28;20052;-75
2023/10/09 04:36:28;;;;;;;33.33;17.00;;;15.50;99.90;;;;;;5118654;27;20043;-75
2023/10/09 04:39:15;;;;;;;30.33;16.50;;;15.50;99.90;;;;;;5124221;28;20054;-74
2023/10/09 04:42:18;;;;;;;33.25;16.27;;;15.50;99.90;;;;;;5118226;28;20710;-73
2023/10/09 04:44:59;;;;;;;31.60;16.48;;;15.50;99.90;;;;;;5115647;27;20126;-72
2023/10/09 04:47:35;;;;;;;33.55;16.52;;;15.50;99.90;;;;;;5114621;28;20050;-73
2023/10/09 04:50:08;;;;;;;28.13;15.63;;;15.50;99.90;;;;;;5129935;28;20059;-73
2023/10/09 04:52:52;;;;;;;30.67;15.40;;;15.60;99.90;;;;;;5117811;27;20043;-73
2023/10/09 04:55:24;;;;;;;28.38;15.57;;;15.60;99.90;;;;;;5118121;28;20204;-72
2023/10/09 04:58:02;;;;;;;25.88;15.45;;;15.60;99.90;;;;;;5120048;28;20429;-73
2023/10/09 05:01:01;;;;;;;27.75;14.48;;;15.60;99.90;;;;;;5115817;28;20444;-73
2023/10/09 05:03:29;;;;;;;36.53;15.48;;;15.60;99.90;;;;;;5119479;28;20487;-74
2023/10/09 05:05:59;;;;;;;24.65;13.98;;;15.60;99.90;;;;;;5125816;27;20052;-73
2023/10/09 05:08:32;;;;;;;29.25;14.98;;;15.70;99.90;;;;;;5113802;28;20048;-73
2023/10/09 05:11:15;;;;;;;27.55;14.38;;;15.60;99.90;;;;;;5117660;28;20061;-74
2023/10/09 05:13:57;;;;;;;29.85;16.02;;;15.70;99.90;;;;;;5118344;28;20482;-72
2023/10/09 05:16:25;;;;;;;28.42;14.88;;;15.70;99.90;;;;;;5112342;27;20063;-73
2023/10/09 05:18:56;;;;;;;27.63;14.18;;;15.70;99.90;;;;;;5115467;28;20134;-73
2023/10/09 05:21:44;;;;;;;26.20;14.68;;;15.70;99.90;;;;;;5117770;28;20044;-72
2023/10/09 05:24:19;;;;;;;23.65;13.25;;;15.70;99.90;;;;;;5114460;28;20050;-74
2023/10/09 05:26:51;;;;;;;27.20;13.88;;;15.70;99.90;;;;;;5112385;27;20043;-73
2023/10/09 05:29:34;;;;;;;24.42;13.45;;;15.70;99.90;;;;;;5114221;27;21590;-74
2023/10/09 05:32:05;;;;;;;19.17;12.02;;;15.70;99.90;;;;;;5123774;27;20062;-73
2023/10/09 05:34:34;;;;;;;22.52;12.32;;;15.70;99.90;;;;;;5115393;27;20043;-73
2023/10/09 05:37:16;;;;;;;22.00;11.98;;;15.70;99.90;;;;;;5116690;27;20066;-74
2023/10/09 05:39:58;;;;;;;23.33;10.48;;;15.70;99.90;;;;;;5132404;27;20047;-74
2023/10/09 05:42:28;;;;;;;21.30;10.60;;;15.70;99.90;;;;;;5123466;27;20050;-72
2023/10/09 05:47:53;;;;;;;21.23;10.45;;;15.70;99.90;;;;;;5124045;27;20044;-73
2023/10/09 05:50:34;;;;;;;16.60;9.38;;;15.80;99.90;;;;;;5142590;27;20047;-72
2023/10/09 05:53:07;;;;;;;23.17;9.02;;;15.80;99.90;;;;;;5119888;27;20058;-72
2023/10/09 05:57:08;;;;;;;20.40;9.77;;;15.80;99.90;;;;;;5124898;27;20047;-72
2023/10/09 06:04:15;;;;;;;19.88;9.77;;;15.80;99.90;;;;;;5117593;27;20039;-73
2023/10/09 06:06:45;;;;;;;18.58;9.10;;;15.90;99.90;;;;;;5121772;27;20482;-72
2023/10/09 06:14:57;;;;;;;20.70;8.90;;;15.90;99.90;;;;;;5121344;27;20047;-73
2023/10/09 06:17:24;;;;;;;16.80;8.38;;;15.90;99.90;;;;;;5131643;27;20047;-73
2023/10/09 06:19:58;;;;;;;21.40;10.00;;;15.90;99.90;;;;;;5119789;27;20384;-73
2023/10/09 06:25:17;;;;;;;17.55;8.95;;;15.90;99.90;;;;;;5124151;27;20046;-71
2023/10/09 06:28:01;;;;;;;15.85;8.23;;;15.90;99.90;;;;;;5129475;27;20050;-72
2023/10/09 06:30:28;;;;;;;22.05;9.15;;;15.90;99.90;;;;;;5121332;27;20043;-72
2023/10/09 06:33:19;;;;;;;17.92;8.05;;;15.90;99.90;;;;;;5120436;27;20043;-73
2023/10/09 06:35:54;;;;;;;23.52;9.30;;;15.90;99.90;;;;;;5133259;27;20071;-72
2023/10/09 06:38:23;;;;;;;18.10;9.50;;;15.90;99.90;;;;;;5128543;27;20479;-71
2023/10/09 06:43:47;;;;;;;20.20;9.82;;;15.90;99.90;;;;;;5123205;27;20039;-72
2023/10/09 06:49:28;;;;;;;18.33;8.82;;;15.90;99.90;;;;;;5131118;27;20039;-71
2023/10/09 06:51:55;;;;;;;18.45;8.20;;;15.90;99.90;;;;;;5129626;27;20049;-71
2023/10/09 06:54:25;;;;;;;19.48;7.90;;;15.90;99.90;;;;;;5125739;27;20542;-72
2023/10/09 07:00:47;;;;;;;21.33;8.30;;;15.90;99.90;;;;;;5121860;27;20124;-72
2023/10/09 07:02:31;;;;;;;23.55;8.80;;;15.90;99.90;;;;;;5123709;27;20049;-72
2023/10/09 07:05:10;;;;;;;18.83;8.27;;;15.90;99.90;;;;;;5143328;27;20038;-72
2023/10/09 07:07:50;;;;;;;15.10;8.10;;;15.90;99.90;;;;;;5147311;27;20067;-72
2023/10/09 07:10:39;;;;;;;19.85;8.57;;;16.00;99.90;;;;;;5136381;27;20047;-71
2023/10/09 07:13:05;;;;;;;16.80;7.93;;;15.90;99.90;;;;;;5144362;27;20079;-72
2023/10/09 07:18:40;;;;;;;24.98;8.07;;;16.00;99.90;;;;;;5132241;27;20039;-72
2023/10/09 07:21:11;;;;;;;21.70;8.60;;;15.90;99.90;;;;;;5122025;27;20118;-72
2023/10/09 07:23:48;;;;;;;18.77;7.80;;;16.00;99.90;;;;;;5118062;27;20095;-72
2023/10/09 07:26:23;;;;;;;18.42;7.65;;;16.00;99.90;;;;;;5121351;27;20523;-72
2023/10/09 07:29:08;;;;;;;17.17;7.57;;;16.00;99.90;;;;;;5124327;27;20640;-71
2023/10/09 07:31:45;;;;;;;19.02;9.18;;;16.00;99.90;;;;;;5119651;27;20043;-72
2023/10/09 07:36:57;;;;;;;18.70;8.23;;;16.10;99.90;;;;;;5117872;27;20088;-72
2023/10/09 07:39:34;;;;;;;16.98;7.72;;;16.10;99.90;;;;;;5124287;27;20085;-72
2023/10/09 07:42:15;;;;;;;19.30;8.18;;;16.10;99.90;;;;;;5123675;27;20151;-72
2023/10/09 07:44:52;;;;;;;17.30;7.70;;;16.10;99.90;;;;;;5119067;27;20119;-72
2023/10/09 07:47:45;;;;;;;20.55;7.93;;;16.10;99.90;;;;;;5124786;27;20148;-72
2023/10/09 07:50:13;;;;;;;18.15;7.40;;;16.10;99.90;;;;;;5115653;27;20074;-72
2023/10/09 07:52:44;;;;;;;16.50;7.80;;;16.10;99.90;;;;;;5117026;27;20089;-72
2023/10/09 07:55:26;;;;;;;17.00;8.13;;;16.10;99.90;;;;;;5120864;27;20130;-72
2023/10/09 07:57:53;;;;;;;16.33;7.70;;;16.20;99.90;;;;;;5116960;27;20078;-71
2023/10/09 08:03:23;;;;;;;18.45;7.28;;;16.20;99.90;;;;;;5120902;27;20057;-72
2023/10/09 08:05:52;;;;;;;16.02;7.47;;;16.20;99.90;;;;;;5123887;27;20060;-72
2023/10/09 08:08:39;;;;;;;18.02;7.65;;;16.20;99.90;;;;;;5112646;27;20042;-71
2023/10/09 08:14:02;;;;;;;20.08;7.75;;;16.20;99.90;;;;;;5113841;27;20051;-71
2023/10/09 08:16:36;;;;;;;21.73;8.30;;;16.20;99.90;;;;;;5131776;27;20053;-72
2023/10/09 08:19:20;;;;;;;22.45;8.18;;;16.30;99.90;;;;;;5122622;27;20043;-72
2023/10/09 08:22:16;;;;;;;22.00;7.78;;;16.30;99.90;;;;;;5113482;27;20050;-71
2023/10/09 08:24:40;;;;;;;21.90;8.65;;;16.30;99.90;;;;;;5118184;27;20042;-71
2023/10/09 08:30:28;;;;;;;17.65;7.55;;;16.30;99.90;;;;;;5124892;27;20092;-72
2023/10/09 08:32:45;;;;;;;19.33;8.18;;;16.30;99.90;;;;;;5117423;27;20595;-72
2023/10/09 08:35:29;;;;;;;18.67;8.05;;;16.30;99.90;;;;;;5113683;27;20039;-72
2023/10/09 08:37:58;;;;;;;14.05;7.00;;;16.30;99.90;;;;;;5136372;27;20114;-72
2023/10/09 08:40:33;;;;;;;15.82;7.28;;;16.30;99.90;;;;;;5116885;27;20039;-72
2023/10/09 08:43:10;;;;;;;20.60;7.57;;;16.30;99.90;;;;;;5117245;27;20047;-72
2023/10/09 08:45:40;;;;;;;23.85;7.88;;;16.30;99.90;;;;;;5117918;27;20502;-72
2023/10/09 08:48:08;;;;;;;21.30;7.45;;;16.30;99.90;;;;;;5115186;27;20092;-71
2023/10/09 08:50:37;;;;;;;16.05;7.20;;;16.40;99.90;;;;;;5116897;27;20051;-72
2023/10/09 08:53:04;;;;;;;18.85;6.85;;;16.40;99.90;;;;;;5120917;27;20066;-72
2023/10/09 08:55:31;;;;;;;15.65;7.20;;;16.50;99.90;;;;;;5117575;27;20594;-72
2023/10/09 08:57:59;;;;;;;22.40;7.35;;;16.50;99.90;;;;;;5119226;27;20387;-71
2023/10/09 09:00:33;;;;;;;14.32;7.43;;;16.60;99.90;;;;;;5116376;27;20546;-71
2023/10/09 09:03:01;;;;;;;17.75;7.68;;;16.60;99.90;;;;;;5118715;27;20057;-72
2023/10/09 09:05:29;;;;;;;16.27;6.82;;;16.60;99.90;;;;;;5129744;27;20055;-72
2023/10/09 09:07:59;;;;;;;16.70;6.55;;;16.60;99.90;;;;;;5124377;27;20043;-72
2023/10/09 09:10:35;;;;;;;17.75;7.28;;;16.70;99.90;;;;;;5124753;27;20434;-72
2023/10/09 09:13:03;;;;;;;17.92;7.53;;;16.70;99.90;;;;;;5119784;27;20047;-72
2023/10/09 09:15:32;;;;;;;14.23;6.78;;;16.70;99.90;;;;;;5139928;27;20402;-72
2023/10/09 09:18:10;;;;;;;13.55;6.68;;;16.70;99.90;;;;;;5119586;27;20487;-72
2023/10/09 09:20:40;;;;;;;15.68;6.72;;;16.70;99.90;;;;;;5118047;27;20490;-71
2023/10/09 09:23:12;;;;;;;20.75;7.22;;;16.70;99.90;;;;;;5124918;27;20403;-71
2023/10/09 09:25:45;;;;;;;17.30;7.95;;;16.70;99.90;;;;;;5121350;27;20058;-72
2023/10/09 09:28:19;;;;;;;13.55;5.70;;;16.70;99.90;;;;;;5118998;27;20051;-72
2023/10/09 09:30:50;;;;;;;16.77;7.22;;;16.80;99.90;;;;;;5119660;27;20374;-72
2023/10/09 09:33:26;;;;;;;17.52;8.00;;;16.80;99.90;;;;;;5120952;27;20103;-72
2023/10/09 09:36:02;;;;;;;20.52;6.85;;;16.80;99.90;;;;;;5126038;27;20047;-72
2023/10/09 09:38:35;;;;;;;17.85;7.50;;;16.90;99.90;;;;;;5116453;27;20072;-72
2023/10/09 09:41:07;;;;;;;15.95;7.20;;;16.90;99.90;;;;;;5126541;27;20039;-72
2023/10/09 09:43:35;;;;;;;15.25;7.05;;;17.00;99.90;;;;;;5121259;27;20047;-72
2023/10/09 09:46:07;;;;;;;12.32;6.55;;;17.00;99.90;;;;;;5125729;27;20088;-71
2023/10/09 09:48:44;;;;;;;19.92;5.85;;;17.10;99.90;;;;;;5119689;27;20130;-71
2023/10/09 09:51:13;;;;;;;13.65;5.90;;;17.10;99.90;;;;;;5123031;27;20067;-72
2023/10/09 09:53:40;;;;;;;16.87;6.37;;;17.20;99.90;;;;;;5124712;27;20486;-71
2023/10/09 09:56:13;;;;;;;13.02;5.53;;;17.20;99.90;;;;;;5137072;27;20047;-72
2023/10/09 09:58:44;;;;;;;13.95;5.93;;;17.20;99.90;;;;;;5120731;27;20506;-71
2023/10/09 10:01:24;;;;;;;11.52;5.13;;;17.20;99.90;;;;;;5116019;27;20130;-71
2023/10/09 10:03:56;;;;;;;;;;;17.20;99.90;;;;;;5120203;27;20051;-72
2023/10/09 10:06:26;;;;;;;12.65;5.43;;;17.10;99.90;;;;;;5116141;27;19919;-72
2023/10/09 10:08:54;;;;;;;10.73;5.40;;;17.10;99.90;;;;;;5117975;27;20039;-71
2023/10/09 10:11:44;;;;;;;13.30;5.63;;;17.10;99.90;;;;;;5128692;27;20056;-72
2023/10/09 10:14:19;;;;;;;11.93;6.17;;;17.00;99.90;;;;;;5116668;27;20070;-72
2023/10/09 10:17:11;;;;;;;12.23;5.35;;;17.00;99.90;;;;;;5114776;27;20772;-72
2023/10/09 10:22:50;;;;;;;11.88;5.07;;;17.00;99.90;;;;;;5115029;27;20050;-71
2023/10/09 10:25:41;;;;;;;12.15;5.57;;;17.00;99.90;;;;;;5113988;27;20062;-72
2023/10/09 10:28:28;;;;;;;17.83;5.00;;;17.00;99.90;;;;;;5116281;27;20047;-72
2023/10/09 10:30:55;;;;;;;12.52;5.22;;;17.00;99.90;;;;;;5122451;27;20461;-72
2023/10/09 10:33:24;;;;;;;14.02;5.90;;;17.00;99.90;;;;;;5125389;27;20042;-71
2023/10/09 10:35:54;;;;;;;12.68;5.15;;;17.10;99.90;;;;;;5123046;27;20054;-71
2023/10/09 10:38:26;;;;;;;15.75;5.75;;;17.20;99.90;;;;;;5126532;27;20051;-72
2023/10/09 10:40:59;;;;;;;14.60;6.20;;;17.20;99.90;;;;;;5122610;27;20417;-71
2023/10/09 10:43:32;;;;;;;16.42;5.90;;;17.30;99.90;;;;;;5135589;27;20042;-72
2023/10/09 10:46:05;;;;;;;13.77;6.03;;;17.40;99.90;;;;;;5117277;27;20043;-71
2023/10/09 10:48:38;;;;;;;18.45;5.70;;;17.30;99.90;;;;;;5133628;27;20062;-72
2023/10/09 10:51:05;;;;;;;14.45;5.72;;;17.30;99.90;;;;;;5117892;27;20123;-71
2023/10/09 10:53:47;;;;;;;14.63;5.20;;;17.30;99.90;;;;;;5121845;27;20100;-71
2023/10/09 10:56:18;;;;;;;15.77;5.50;;;17.30;99.90;;;;;;5135884;27;20039;-71
2023/10/09 10:59:11;;;;;;;17.00;5.78;;;17.30;99.90;;;;;;5117810;27;20039;-72
2023/10/09 11:04:41;;;;;;;15.90;5.68;;;17.20;99.90;;;;;;5130437;27;20046;-72
2023/10/09 11:07:09;;;;;;;17.58;6.03;;;17.20;99.90;;;;;;5135690;27;20051;-71
2023/10/09 11:10:07;;;;;;;18.52;5.97;;;17.20;99.90;;;;;;5116683;27;20070;-71
2023/10/09 11:12:45;;;;;;;16.85;5.85;;;17.20;99.90;;;;;;5137217;27;20410;-71
2023/10/09 11:15:29;;;;;;;14.93;5.38;;;17.20;99.90;;;;;;5143288;27;20054;-72
2023/10/09 11:18:04;;;;;;;16.98;5.65;;;17.20;99.90;;;;;;5119020;27;20078;-72
2023/10/09 11:20:36;;;;;;;13.85;4.82;;;17.20;99.90;;;;;;5118643;27;20122;-71
2023/10/09 11:23:14;;;;;;;11.10;4.78;;;17.10;99.90;;;;;;5118598;27;20065;-71
2023/10/09 11:25:50;;;;;;;14.43;4.95;;;17.10;99.90;;;;;;5124024;27;20043;-71
2023/10/09 11:28:29;;;;;;;19.67;5.93;;;17.10;99.90;;;;;;5116658;27;20091;-71
2023/10/09 11:31:06;;;;;;;12.27;4.47;;;17.10;99.90;;;;;;5121531;27;20137;-72
2023/10/09 11:33:43;;;;;;;9.38;4.43;;;17.10;99.90;;;;;;5128388;27;20047;-72
2023/10/09 11:36:12;;;;;;;13.07;4.80;;;17.10;99.90;;;;;;5122012;27;20035;-72
2023/10/09 11:38:38;;;;;;;10.13;3.97;;;17.20;99.90;;;;;;5120013;27;20070;-72
2023/10/09 11:41:22;;;;;;;13.85;4.30;;;17.40;99.90;;;;;;5116104;27;20039;-72
2023/10/09 11:43:52;;;;;;;9.32;4.38;;;17.60;99.90;;;;;;5118467;27;20058;-72
2023/10/09 11:46:48;;;;;;;9.18;4.72;;;17.60;99.90;;;;;;5115518;27;20047;-72
2023/10/09 11:49:25;;;;;;;13.95;5.13;;;17.70;99.90;;;;;;5122625;27;20054;-70
2023/10/09 11:54:39;;;;;;;12.30;3.88;;;17.70;99.90;;;;;;5120277;27;20544;-72
2023/10/09 11:57:06;;;;;;;12.15;4.35;;;17.70;99.90;;;;;;5144479;27;20372;-72
2023/10/09 11:59:37;;;;;;;12.13;4.40;;;17.80;99.90;;;;;;5117815;27;20057;-72
2023/10/09 12:02:05;;;;;;;9.10;4.07;;;17.80;99.90;;;;;;5114230;27;20088;-73
2023/10/09 12:04:32;;;;;;;13.68;4.05;;;17.80;99.90;;;;;;5125728;27;20062;-72
2023/10/09 12:07:07;;;;;;;11.05;3.33;;;17.70;99.90;;;;;;5124986;27;20051;-72
2023/10/09 12:09:35;;;;;;;10.68;3.97;;;17.70;99.90;;;;;;5118662;27;20555;-71
2023/10/09 12:12:03;;;;;;;11.82;3.63;;;17.80;99.90;;;;;;5116399;27;20475;-72
2023/10/09 12:14:33;;;;;;;8.05;3.88;;;17.90;99.90;;;;;;5114763;27;20527;-71
2023/10/09 12:17:05;;;;;;;12.57;3.80;;;17.90;99.90;;;;;;5115069;27;20058;-71
2023/10/09 12:19:33;;;;;;;10.93;3.55;;;17.80;99.90;;;;;;5115353;27;20563;-71
2023/10/09 12:22:03;;;;;;;10.75;3.80;;;17.80;99.90;;;;;;5115226;27;20035;-71
2023/10/09 12:24:30;;;;;;;10.30;3.25;;;17.80;99.90;;;;;;5134016;27;20095;-71
2023/10/09 12:26:57;;;;;;;16.25;4.75;;;17.80;99.90;;;;;;5116144;27;20070;-72
2023/10/09 12:29:29;;;;;;;11.25;3.47;;;17.80;99.90;;;;;;5118288;27;20054;-72
2023/10/09 12:31:59;;;;;;;9.80;3.50;;;17.70;99.90;;;;;;5128447;27;20046;-72
2023/10/09 12:34:27;;;;;;;13.15;3.60;;;17.70;99.90;;;;;;5119985;27;20042;-71
2023/10/09 12:36:55;;;;;;;8.60;3.75;;;17.60;99.90;;;;;;5132419;27;20085;-72
2023/10/09 12:39:23;;;;;;;7.35;3.53;;;17.70;99.90;;;;;;5122783;27;20042;-71
2023/10/09 12:41:53;;;;;;;11.27;3.72;;;17.70;99.90;;;;;;5138454;27;20088;-71
2023/10/09 12:44:20;;;;;;;7.90;3.47;;;17.80;99.90;;;;;;5121328;27;20054;-71
2023/10/09 12:46:52;;;;;;;12.02;4.28;;;17.90;99.90;;;;;;5121112;27;20096;-71
2023/10/09 12:49:24;;;;;;;7.95;3.60;;;18.00;99.90;;;;;;5132019;27;20078;-72
2023/10/09 12:51:52;;;;;;;12.10;3.90;;;18.00;99.90;;;;;;5138525;27;20089;-72
2023/10/09 12:54:26;;;;;;;13.57;3.90;;;18.00;99.90;;;;;;5125762;27;20038;-71
2023/10/09 12:56:55;;;;;;;8.50;3.20;;;17.90;99.90;;;;;;5121609;27;20058;-73
2023/10/09 12:59:24;;;;;;;7.13;3.42;;;18.00;99.90;;;;;;5118028;27;20448;-72
2023/10/09 13:01:57;;;;;;;8.73;3.42;;;18.00;99.90;;;;;;5121742;27;20058;-72
2023/10/09 13:04:31;;;;;;;11.57;3.78;;;18.00;99.90;;;;;;5119164;27;20047;-72
2023/10/09 13:07:02;;;;;;;12.32;3.55;;;18.10;99.90;;;;;;5119755;27;20122;-71
2023/10/09 13:09:35;;;;;;;12.48;5.07;;;18.10;99.90;;;;;;5122403;27;20096;-71
2023/10/09 13:12:03;;;;;;;11.20;3.53;;;18.10;99.90;;;;;;5144409;27;20046;-72
2023/10/09 13:14:33;;;;;;;16.17;3.97;;;18.10;99.90;;;;;;5124805;27;20043;-70
2023/10/09 13:17:08;;;;;;;9.20;3.70;;;18.20;99.90;;;;;;5117088;27;20043;-71
2023/10/09 13:19:35;;;;;;;12.88;3.85;;;18.10;99.90;;;;;;5124613;27;20945;-71
2023/10/09 13:22:03;;;;;;;8.68;3.97;;;18.00;99.90;;;;;;5121961;27;20099;-71
2023/10/09 13:24:30;;;;;;;10.32;3.75;;;18.10;99.90;;;;;;5121252;27;20050;-72
2023/10/09 13:26:59;;;;;;;9.05;3.90;;;18.00;99.90;;;;;;5121182;27;20208;-72
2023/10/09 13:29:28;;;;;;;8.50;3.20;;;18.10;99.90;;;;;;5121695;27;20046;-70
2023/10/09 13:31:58;;;;;;;9.35;3.85;;;18.10;99.90;;;;;;5123446;27;20047;-72
2023/10/09 13:34:27;;;;;;;8.82;3.50;;;18.10;99.90;;;;;;5122709;27;20054;-72
2023/10/09 13:36:57;;;;;;;12.77;3.95;;;18.10;99.90;;;;;;5135096;27;20096;-70
2023/10/09 13:39:24;;;;;;;10.60;3.67;;;18.10;99.90;;;;;;5121141;27;20088;-71
2023/10/09 13:41:57;;;;;;;16.33;3.95;;;18.00;99.90;;;;;;5118077;27;20048;-70
2023/10/09 13:44:29;;;;;;;9.30;3.70;;;18.10;99.90;;;;;;5118156;27;20046;-71
2023/10/09 13:46:57;;;;;;;9.15;3.80;;;18.20;99.90;;;;;;5119334;27;20414;-71
2023/10/09 13:49:29;;;;;;;9.93;3.17;;;18.20;99.90;;;;;;5122234;27;20058;-71
2023/10/09 13:51:56;;;;;;;7.53;3.38;;;18.10;99.90;;;;;;5128194;27;20397;-71
2023/10/09 13:54:28;;;;;;;9.52;3.03;;;18.10;99.90;;;;;;5119592;27;20054;-72
2023/10/09 13:56:55;;;;;;;10.60;2.80;;;18.00;99.90;;;;;;5120313;27;20115;-71
2023/10/09 13:59:25;;;;;;;8.77;3.25;;;18.00;99.90;;;;;;5132015;27;20165;-73
2023/10/09 14:01:55;;;;;;;11.63;3.37;;;17.90;99.90;;;;;;5123664;27;20047;-72